createdAt,value
2022-09-07T00:04:06.503Z,1014.47
2022-09-07T00:09:07.680Z,1014.21
2022-09-07T00:14:07.893Z,1014.21
2022-09-07T00:19:09.995Z,1014.18
2022-09-07T00:24:09.265Z,1014.12
2022-09-07T00:29:11.377Z,1014.02
2022-09-07T00:34:10.599Z,1013.95
2022-09-07T00:39:12.852Z,1013.94
2022-09-07T00:44:11.959Z,1013.82
2022-09-07T00:49:13.235Z,1013.84
2022-09-07T00:54:15.320Z,1013.80
2022-09-07T00:59:14.420Z,1013.66
2022-09-07T01:04:16.519Z,1013.69
2022-09-07T01:09:16.591Z,1013.63
2022-09-07T01:14:15.687Z,1013.74
2022-09-07T01:19:16.843Z,1013.69
2022-09-07T01:24:17.943Z,1013.70
2022-09-07T01:29:21.016Z,1013.79
2022-09-07T01:34:20.150Z,1013.73
2022-09-07T01:39:22.225Z,1013.66
2022-09-07T01:44:21.308Z,1013.62
2022-09-07T01:49:22.531Z,1013.74
2022-09-07T01:54:23.712Z,1013.74
2022-09-07T01:59:25.872Z,1013.62
2022-09-07T02:04:24.949Z,1013.72
2022-09-07T02:09:26.190Z,1013.77
2022-09-07T02:14:27.290Z,1013.93
2022-09-07T02:19:27.510Z,1013.90
2022-09-07T02:24:28.843Z,1013.86
2022-09-07T02:29:31.077Z,1013.60
2022-09-07T02:34:30.402Z,1013.66
2022-09-07T02:39:31.851Z,1013.70
2022-09-07T02:44:30.948Z,1013.51
2022-09-07T02:49:32.169Z,1013.60
2022-09-07T02:54:34.267Z,1013.64
2022-09-07T02:59:33.701Z,1013.61
2022-09-07T03:04:34.830Z,1013.50
2022-09-07T03:09:35.919Z,1013.34
2022-09-07T03:14:37.003Z,1013.38
2022-09-07T03:19:38.148Z,1013.52
2022-09-07T03:24:39.328Z,1013.72
2022-09-07T03:29:42.114Z,1013.82
2022-09-07T03:34:41.426Z,1013.71
2022-09-07T03:39:42.702Z,1013.81
2022-09-07T03:44:43.909Z,1013.77
2022-09-07T03:49:46.003Z,1013.84
2022-09-07T03:54:45.092Z,1013.93
2022-09-07T03:59:46.177Z,1014.23
2022-09-07T04:04:47.398Z,1015.06
2022-09-07T04:09:48.489Z,1015.01
2022-09-07T04:14:50.601Z,1014.98
2022-09-07T04:19:50.696Z,1015.00
2022-09-07T04:24:51.788Z,1014.88
2022-09-07T04:29:50.892Z,1014.74
2022-09-07T04:34:51.024Z,1014.62
2022-09-07T04:39:52.187Z,1014.69
2022-09-07T04:44:54.317Z,1014.71
2022-09-07T04:49:55.413Z,1014.69
2022-09-07T04:54:54.505Z,1014.66
2022-09-07T04:59:56.576Z,1014.51
2022-09-07T05:05:02.006Z,1014.53
2022-09-07T05:09:56.665Z,1014.72
2022-09-07T05:14:57.880Z,1014.69
2022-09-07T05:19:58.959Z,1014.91
2022-09-07T05:25:00.035Z,1014.94
2022-09-07T05:30:01.252Z,1015.03
2022-09-07T05:35:02.491Z,1015.00
2022-09-07T05:40:03.719Z,1015.08
2022-09-07T05:45:04.845Z,1015.01
2022-09-07T05:50:05.998Z,1014.92
2022-09-07T05:55:26.315Z,1014.93
2022-09-07T06:00:07.216Z,1014.96
2022-09-07T06:05:08.455Z,1014.99
2022-09-07T06:15:11.504Z,1015.10
2022-09-07T06:20:11.597Z,1015.10
2022-09-07T06:25:10.690Z,1015.20
2022-09-07T06:30:10.821Z,1015.22
2022-09-07T06:35:12.940Z,1015.31
2022-09-07T06:40:12.167Z,1015.18
2022-09-07T06:45:14.503Z,1015.17
2022-09-07T06:50:14.622Z,1015.25
2022-09-07T06:55:13.873Z,1015.25
2022-09-07T07:00:15.064Z,1015.13
2022-09-07T07:05:14.166Z,1015.19
2022-09-07T07:10:22.155Z,1015.25
2022-09-07T07:15:18.200Z,1015.12
2022-09-07T07:20:17.313Z,1015.26
2022-09-07T07:25:20.442Z,1015.23
2022-09-07T07:30:19.721Z,1015.25
2022-09-07T07:35:20.896Z,1014.98
2022-09-07T07:40:27.687Z,1015.19
2022-09-07T07:50:37.517Z,1015.34
2022-09-07T08:00:37.384Z,1015.36
2022-09-07T08:05:23.324Z,1015.40
2022-09-07T08:10:25.556Z,1015.44
2022-09-07T08:15:24.751Z,1015.36
2022-09-07T08:20:26.882Z,1015.42
2022-09-07T08:25:26.368Z,1015.39
2022-09-07T08:30:26.545Z,1015.34
2022-09-07T08:35:25.643Z,1015.45
2022-09-07T08:40:26.875Z,1015.41
2022-09-07T08:45:28.071Z,1015.32
2022-09-07T08:50:30.167Z,1015.32
2022-09-07T08:55:30.382Z,1015.18
2022-09-07T09:00:29.557Z,1015.10
2022-09-07T09:05:30.807Z,1015.01
2022-09-07T09:10:31.984Z,1014.94
2022-09-07T09:15:35.153Z,1015.04
2022-09-07T09:20:33.380Z,1014.97
2022-09-07T09:25:34.552Z,1014.84
2022-09-07T09:30:35.802Z,1014.89
2022-09-07T09:35:37.023Z,1014.79
2022-09-07T09:40:38.275Z,1014.77
2022-09-07T09:55:41.361Z,1014.55
2022-09-07T10:01:21.182Z,1014.36
2022-09-07T10:05:42.438Z,1014.23
2022-09-07T10:10:43.522Z,1014.20
2022-09-07T10:15:44.643Z,1014.07
2022-09-07T10:20:47.078Z,1013.99
2022-09-07T10:25:47.182Z,1013.87
2022-09-07T10:30:46.376Z,1013.84
2022-09-07T10:35:47.862Z,1013.68
2022-09-07T10:40:47.017Z,1013.54
2022-09-07T10:45:51.098Z,1013.47
2022-09-07T10:50:47.219Z,1013.42
2022-09-07T10:55:48.342Z,1013.40
2022-09-07T11:00:49.719Z,1013.43
2022-09-07T11:05:50.982Z,1013.43
2022-09-07T11:10:53.165Z,1013.33
2022-09-07T11:15:53.315Z,1013.22
2022-09-07T11:20:52.427Z,1013.12
2022-09-07T11:25:53.577Z,1013.03
2022-09-07T11:30:59.187Z,1012.95
2022-09-07T11:35:54.759Z,1012.79
2022-09-07T11:40:57.033Z,1012.75
2022-09-07T11:45:57.362Z,1012.69
2022-09-07T11:50:56.503Z,1012.62
2022-09-07T11:55:57.592Z,1012.54
2022-09-07T12:00:59.692Z,1012.48
2022-09-07T12:05:58.935Z,1012.36
2022-09-07T12:11:00.148Z,1012.33
2022-09-07T12:16:02.861Z,1012.19
2022-09-07T12:21:02.663Z,1012.04
2022-09-07T12:26:03.778Z,1011.95
2022-09-07T12:31:04.931Z,1011.85
2022-09-07T12:36:06.063Z,1011.83
2022-09-07T12:41:07.345Z,1011.82
2022-09-07T12:46:08.672Z,1011.73
2022-09-07T12:51:10.022Z,1011.70
2022-09-07T12:56:18.450Z,1011.75
2022-09-07T13:01:11.191Z,1011.71
2022-09-07T13:06:12.426Z,1011.68
2022-09-07T13:11:14.555Z,1011.67
2022-09-07T13:16:13.714Z,1011.51
2022-09-07T13:21:58.996Z,1011.37
2022-09-07T13:26:16.130Z,1011.32
2022-09-07T13:31:17.384Z,1011.19
2022-09-07T13:36:19.545Z,1011.13
2022-09-07T13:41:18.751Z,1011.14
2022-09-07T13:46:19.890Z,1011.06
2022-09-07T13:51:20.977Z,1011.01
2022-09-07T13:56:22.173Z,1010.95
2022-09-07T14:01:23.416Z,1010.92
2022-09-07T14:06:25.548Z,1010.81
2022-09-07T14:11:24.767Z,1010.69
2022-09-07T14:16:26.013Z,1010.55
2022-09-07T14:21:27.279Z,1010.51
2022-09-07T14:26:29.371Z,1010.50
2022-09-07T14:31:28.549Z,1010.40
2022-09-07T14:36:44.044Z,1010.35
2022-09-07T14:41:29.921Z,1010.36
2022-09-07T14:46:31.786Z,1010.23
2022-09-07T14:51:36.440Z,1010.28
2022-09-07T14:56:32.012Z,1010.22
2022-09-07T15:01:40.252Z,1010.22
2022-09-07T15:11:35.032Z,1010.07
2022-09-07T15:16:34.169Z,1010.07
2022-09-07T15:21:35.287Z,1010.02
2022-09-07T15:31:42.653Z,1009.97
2022-09-07T15:36:37.321Z,1009.93
2022-09-07T15:41:38.420Z,1009.92
2022-09-07T15:46:40.625Z,1009.79
2022-09-07T15:56:40.459Z,1009.66
2022-09-07T16:01:56.855Z,1009.63
2022-09-07T16:06:40.022Z,1009.52
2022-09-07T16:11:42.133Z,1009.48
2022-09-07T16:21:41.365Z,1009.38
2022-09-07T16:26:43.135Z,1009.40
2022-09-07T16:36:42.610Z,1009.28
2022-09-07T16:41:43.720Z,1009.25
2022-09-07T16:46:44.834Z,1009.18
2022-09-07T16:51:46.932Z,1009.15
2022-09-07T16:56:46.039Z,1009.12
2022-09-07T17:01:47.337Z,1009.20
2022-09-07T17:06:49.472Z,1009.13
2022-09-07T17:11:49.577Z,1009.09
2022-09-07T17:16:48.744Z,1009.12
2022-09-07T17:21:48.898Z,1009.03
2022-09-07T17:26:50.524Z,1009.17
2022-09-07T17:36:51.506Z,1009.22
2022-09-07T17:41:52.741Z,1009.09
2022-09-07T17:46:52.148Z,1009.13
2022-09-07T17:51:53.380Z,1009.25
2022-09-07T17:56:54.640Z,1009.25
2022-09-07T18:01:56.133Z,1009.15
2022-09-07T18:06:56.496Z,1009.13
2022-09-07T18:11:56.760Z,1009.16
2022-09-07T18:16:56.255Z,1009.31
2022-09-07T18:21:57.221Z,1009.39
2022-09-07T18:26:56.888Z,1009.41
2022-09-07T18:31:56.330Z,1009.38
2022-09-07T18:36:58.771Z,1009.52
2022-09-07T18:41:58.151Z,1009.74
2022-09-07T18:46:59.510Z,1009.87
2022-09-07T18:57:01.167Z,1010.38
2022-09-07T19:02:04.326Z,1010.55
2022-09-07T19:07:00.043Z,1010.68
2022-09-07T19:12:00.436Z,1010.90
2022-09-07T19:17:05.055Z,1011.09
2022-09-07T19:22:02.286Z,1011.34
2022-09-07T19:27:03.593Z,1011.35
2022-09-07T19:32:05.958Z,1011.32
2022-09-07T19:37:06.063Z,1011.50
2022-09-07T19:42:05.568Z,1011.50
2022-09-07T19:47:04.936Z,1011.60
2022-09-07T19:52:07.372Z,1011.57
2022-09-07T19:57:07.418Z,1011.57
2022-09-07T20:02:06.662Z,1011.39
2022-09-07T20:07:08.036Z,1011.43
2022-09-07T20:12:09.415Z,1011.30
2022-09-07T20:17:10.915Z,1011.17
2022-09-07T20:22:10.178Z,1011.19
2022-09-07T20:27:11.376Z,1011.10
2022-09-07T20:32:12.604Z,1011.02
2022-09-07T20:37:13.730Z,1010.84
2022-09-07T20:42:14.837Z,1010.84
2022-09-07T20:47:17.050Z,1011.02
2022-09-07T20:52:16.215Z,1010.96
2022-09-07T20:57:17.464Z,1010.91
2022-09-07T21:02:18.604Z,1011.14
2022-09-07T21:07:21.726Z,1010.94
2022-09-07T21:12:20.965Z,1010.76
2022-09-07T21:17:23.089Z,1010.73
2022-09-07T21:22:23.226Z,1010.95
2022-09-07T21:27:22.337Z,1011.13
2022-09-07T21:32:24.455Z,1011.11
2022-09-07T21:37:24.604Z,1011.02
2022-09-07T21:42:25.711Z,1010.88
2022-09-07T21:47:25.800Z,1010.83
2022-09-07T21:52:25.914Z,1010.80
2022-09-07T21:57:26.009Z,1010.82
2022-09-07T22:02:25.195Z,1010.72
2022-09-07T22:07:27.332Z,1010.52
2022-09-07T22:12:27.425Z,1010.40
2022-09-07T22:17:26.518Z,1010.30
2022-09-07T22:22:28.909Z,1010.23
2022-09-07T22:27:28.124Z,1010.22
2022-09-07T22:32:30.266Z,1009.96
2022-09-07T22:37:29.651Z,1009.90
2022-09-07T22:42:32.729Z,1009.95
2022-09-07T22:47:31.823Z,1010.03
2022-09-07T22:52:34.907Z,1010.13
2022-09-07T22:57:33.988Z,1010.22
2022-09-07T23:02:35.089Z,1010.27
2022-09-07T23:07:35.374Z,1010.43
2022-09-07T23:12:36.491Z,1010.47
2022-09-07T23:17:37.634Z,1010.52
2022-09-07T23:22:37.705Z,1010.40
2022-09-07T23:27:38.798Z,1010.36
2022-09-07T23:32:39.929Z,1010.47
2022-09-07T23:37:41.018Z,1010.63
2022-09-07T23:42:43.189Z,1010.69
2022-09-07T23:47:42.285Z,1010.59
2022-09-07T23:52:43.479Z,1010.63
2022-09-07T23:57:44.638Z,1010.61
